sensor_id;sensor_type;location;lat;lon;timestamp;P1;durP1;ratioP1;P2;durP2;ratioP2
2720;SDS011;1368;49.484;11.112;2023-04-24T00:00:54;7.30;;;4.73;;
2720;SDS011;1368;49.484;11.112;2023-04-24T00:03:25;5.33;;;4.13;;
2720;SDS011;1368;49.484;11.112;2023-04-24T00:05:52;6.57;;;3.67;;
2720;SDS011;1368;49.484;11.112;2023-04-24T00:08:21;4.60;;;4.10;;
2720;SDS011;1368;49.484;11.112;2023-04-24T00:10:47;5.53;;;3.90;;
2720;SDS011;1368;49.484;11.112;2023-04-24T00:13:13;5.77;;;3.70;;
2720;SDS011;1368;49.484;11.112;2023-04-24T00:15:38;7.30;;;4.60;;
2720;SDS011;1368;49.484;11.112;2023-04-24T00:18:04;6.90;;;4.53;;
2720;SDS011;1368;49.484;11.112;2023-04-24T00:20:30;6.40;;;3.63;;
2720;SDS011;1368;49.484;11.112;2023-04-24T00:22:57;6.97;;;4.90;;
2720;SDS011;1368;49.484;11.112;2023-04-24T00:25:23;3.80;;;3.20;;
2720;SDS011;1368;49.484;11.112;2023-04-24T00:27:48;6.27;;;4.00;;
2720;SDS011;1368;49.484;11.112;2023-04-24T00:30:14;8.87;;;4.40;;
2720;SDS011;1368;49.484;11.112;2023-04-24T00:32:40;5.50;;;4.07;;
2720;SDS011;1368;49.484;11.112;2023-04-24T00:35:05;8.53;;;4.27;;
2720;SDS011;1368;49.484;11.112;2023-04-24T00:37:31;6.40;;;5.37;;
2720;SDS011;1368;49.484;11.112;2023-04-24T00:39:57;7.10;;;4.30;;
2720;SDS011;1368;49.484;11.112;2023-04-24T00:42:22;7.33;;;4.27;;
2720;SDS011;1368;49.484;11.112;2023-04-24T00:44:48;13.20;;;4.67;;
2720;SDS011;1368;49.484;11.112;2023-04-24T00:47:14;6.33;;;4.63;;
2720;SDS011;1368;49.484;11.112;2023-04-24T00:49:40;4.63;;;4.10;;
2720;SDS011;1368;49.484;11.112;2023-04-24T00:52:06;5.60;;;4.03;;
2720;SDS011;1368;49.484;11.112;2023-04-24T00:54:33;8.33;;;4.20;;
2720;SDS011;1368;49.484;11.112;2023-04-24T00:57:04;6.07;;;3.90;;
2720;SDS011;1368;49.484;11.112;2023-04-24T00:59:30;4.47;;;3.53;;
2720;SDS011;1368;49.484;11.112;2023-04-24T01:01:57;13.40;;;5.47;;
2720;SDS011;1368;49.484;11.112;2023-04-24T01:04:23;5.10;;;4.60;;
2720;SDS011;1368;49.484;11.112;2023-04-24T01:06:51;5.73;;;4.07;;
2720;SDS011;1368;49.484;11.112;2023-04-24T01:09:17;7.43;;;5.43;;
2720;SDS011;1368;49.484;11.112;2023-04-24T01:11:43;6.50;;;4.03;;
2720;SDS011;1368;49.484;11.112;2023-04-24T01:14:09;10.00;;;5.03;;
2720;SDS011;1368;49.484;11.112;2023-04-24T01:16:35;8.10;;;4.57;;
2720;SDS011;1368;49.484;11.112;2023-04-24T01:19:00;7.83;;;3.93;;
2720;SDS011;1368;49.484;11.112;2023-04-24T01:21:26;10.10;;;3.80;;
2720;SDS011;1368;49.484;11.112;2023-04-24T01:23:55;7.87;;;4.07;;
2720;SDS011;1368;49.484;11.112;2023-04-24T01:26:22;7.73;;;4.30;;
2720;SDS011;1368;49.484;11.112;2023-04-24T01:28:48;6.73;;;4.60;;
2720;SDS011;1368;49.484;11.112;2023-04-24T01:31:14;9.00;;;4.83;;
2720;SDS011;1368;49.484;11.112;2023-04-24T01:33:46;6.17;;;3.87;;
2720;SDS011;1368;49.484;11.112;2023-04-24T01:36:12;5.37;;;4.40;;
2720;SDS011;1368;49.484;11.112;2023-04-24T01:38:38;5.33;;;4.47;;
2720;SDS011;1368;49.484;11.112;2023-04-24T01:41:04;6.00;;;4.70;;
2720;SDS011;1368;49.484;11.112;2023-04-24T01:43:30;8.30;;;5.27;;
2720;SDS011;1368;49.484;11.112;2023-04-24T01:45:55;7.70;;;4.63;;
2720;SDS011;1368;49.484;11.112;2023-04-24T01:48:21;7.47;;;5.03;;
2720;SDS011;1368;49.484;11.112;2023-04-24T01:50:47;11.20;;;5.30;;
2720;SDS011;1368;49.484;11.112;2023-04-24T01:53:13;7.77;;;5.03;;
2720;SDS011;1368;49.484;11.112;2023-04-24T01:55:38;5.57;;;3.63;;
2720;SDS011;1368;49.484;11.112;2023-04-24T01:58:05;8.80;;;3.37;;
2720;SDS011;1368;49.484;11.112;2023-04-24T02:00:30;6.70;;;2.97;;
2720;SDS011;1368;49.484;11.112;2023-04-24T02:02:56;5.97;;;3.60;;
2720;SDS011;1368;49.484;11.112;2023-04-24T02:05:21;9.40;;;3.73;;
2720;SDS011;1368;49.484;11.112;2023-04-24T02:07:47;7.10;;;3.23;;
2720;SDS011;1368;49.484;11.112;2023-04-24T02:10:12;5.77;;;2.80;;
2720;SDS011;1368;49.484;11.112;2023-04-24T02:12:38;6.80;;;3.20;;
2720;SDS011;1368;49.484;11.112;2023-04-24T02:15:04;3.27;;;2.40;;
2720;SDS011;1368;49.484;11.112;2023-04-24T02:17:30;4.93;;;2.43;;
2720;SDS011;1368;49.484;11.112;2023-04-24T02:19:55;4.80;;;2.40;;
2720;SDS011;1368;49.484;11.112;2023-04-24T02:22:21;5.30;;;2.00;;
2720;SDS011;1368;49.484;11.112;2023-04-24T02:24:47;4.20;;;2.30;;
2720;SDS011;1368;49.484;11.112;2023-04-24T02:27:12;7.93;;;2.20;;
2720;SDS011;1368;49.484;11.112;2023-04-24T02:29:38;4.70;;;2.60;;
2720;SDS011;1368;49.484;11.112;2023-04-24T02:32:03;5.33;;;2.37;;
2720;SDS011;1368;49.484;11.112;2023-04-24T02:34:29;4.20;;;2.50;;
2720;SDS011;1368;49.484;11.112;2023-04-24T02:36:55;5.30;;;2.03;;
2720;SDS011;1368;49.484;11.112;2023-04-24T02:39:20;3.63;;;2.50;;
2720;SDS011;1368;49.484;11.112;2023-04-24T02:41:46;6.93;;;2.13;;
2720;SDS011;1368;49.484;11.112;2023-04-24T02:44:12;2.60;;;1.67;;
2720;SDS011;1368;49.484;11.112;2023-04-24T02:46:37;4.70;;;2.57;;
2720;SDS011;1368;49.484;11.112;2023-04-24T02:49:03;5.80;;;2.70;;
2720;SDS011;1368;49.484;11.112;2023-04-24T02:51:29;4.33;;;2.50;;
2720;SDS011;1368;49.484;11.112;2023-04-24T02:53:54;3.23;;;2.43;;
2720;SDS011;1368;49.484;11.112;2023-04-24T02:56:20;2.90;;;1.97;;
2720;SDS011;1368;49.484;11.112;2023-04-24T02:58:46;4.40;;;2.27;;
2720;SDS011;1368;49.484;11.112;2023-04-24T03:01:11;4.50;;;2.10;;
2720;SDS011;1368;49.484;11.112;2023-04-24T03:03:37;2.93;;;2.30;;
2720;SDS011;1368;49.484;11.112;2023-04-24T03:06:04;3.13;;;2.23;;
2720;SDS011;1368;49.484;11.112;2023-04-24T03:08:30;7.77;;;2.27;;
2720;SDS011;1368;49.484;11.112;2023-04-24T03:10:56;3.87;;;2.50;;
2720;SDS011;1368;49.484;11.112;2023-04-24T03:13:22;5.23;;;3.40;;
2720;SDS011;1368;49.484;11.112;2023-04-24T03:15:47;7.80;;;3.63;;
2720;SDS011;1368;49.484;11.112;2023-04-24T03:18:13;3.77;;;2.60;;
2720;SDS011;1368;49.484;11.112;2023-04-24T03:20:39;7.47;;;3.57;;
2720;SDS011;1368;49.484;11.112;2023-04-24T03:23:04;5.20;;;3.73;;
2720;SDS011;1368;49.484;11.112;2023-04-24T03:25:30;5.43;;;3.53;;
2720;SDS011;1368;49.484;11.112;2023-04-24T03:27:55;5.97;;;3.97;;
2720;SDS011;1368;49.484;11.112;2023-04-24T03:30:21;5.53;;;3.20;;
2720;SDS011;1368;49.484;11.112;2023-04-24T03:32:47;6.17;;;3.50;;
2720;SDS011;1368;49.484;11.112;2023-04-24T03:35:12;6.03;;;4.47;;
2720;SDS011;1368;49.484;11.112;2023-04-24T03:37:38;4.20;;;3.50;;
2720;SDS011;1368;49.484;11.112;2023-04-24T03:40:03;7.13;;;3.43;;
2720;SDS011;1368;49.484;11.112;2023-04-24T03:42:30;6.83;;;3.73;;
2720;SDS011;1368;49.484;11.112;2023-04-24T03:44:56;5.30;;;3.57;;
2720;SDS011;1368;49.484;11.112;2023-04-24T03:47:22;4.83;;;3.40;;
2720;SDS011;1368;49.484;11.112;2023-04-24T03:49:47;5.63;;;3.70;;
2720;SDS011;1368;49.484;11.112;2023-04-24T03:52:13;4.43;;;3.63;;
2720;SDS011;1368;49.484;11.112;2023-04-24T03:54:38;6.37;;;3.50;;
2720;SDS011;1368;49.484;11.112;2023-04-24T03:57:04;4.07;;;2.83;;
2720;SDS011;1368;49.484;11.112;2023-04-24T03:59:30;5.80;;;3.40;;
2720;SDS011;1368;49.484;11.112;2023-04-24T04:01:55;7.80;;;4.47;;
2720;SDS011;1368;49.484;11.112;2023-04-24T04:04:21;5.63;;;3.40;;
2720;SDS011;1368;49.484;11.112;2023-04-24T04:06:47;4.80;;;3.33;;
2720;SDS011;1368;49.484;11.112;2023-04-24T04:09:13;5.97;;;3.63;;
2720;SDS011;1368;49.484;11.112;2023-04-24T04:11:38;6.77;;;3.43;;
2720;SDS011;1368;49.484;11.112;2023-04-24T04:14:04;11.50;;;3.73;;
2720;SDS011;1368;49.484;11.112;2023-04-24T04:16:30;4.30;;;3.53;;
2720;SDS011;1368;49.484;11.112;2023-04-24T04:18:55;4.43;;;3.30;;
2720;SDS011;1368;49.484;11.112;2023-04-24T04:21:21;3.97;;;2.93;;
2720;SDS011;1368;49.484;11.112;2023-04-24T04:23:47;4.53;;;3.50;;
2720;SDS011;1368;49.484;11.112;2023-04-24T04:26:13;6.10;;;3.10;;
2720;SDS011;1368;49.484;11.112;2023-04-24T04:28:38;4.70;;;3.27;;
2720;SDS011;1368;49.484;11.112;2023-04-24T04:31:04;3.30;;;2.57;;
2720;SDS011;1368;49.484;11.112;2023-04-24T04:33:30;6.57;;;3.73;;
2720;SDS011;1368;49.484;11.112;2023-04-24T04:35:56;4.73;;;3.33;;
2720;SDS011;1368;49.484;11.112;2023-04-24T04:38:22;6.43;;;3.90;;
2720;SDS011;1368;49.484;11.112;2023-04-24T04:40:48;3.70;;;2.57;;
2720;SDS011;1368;49.484;11.112;2023-04-24T04:43:14;5.63;;;3.20;;
2720;SDS011;1368;49.484;11.112;2023-04-24T04:45:42;4.90;;;3.27;;
2720;SDS011;1368;49.484;11.112;2023-04-24T04:48:08;6.60;;;3.83;;
2720;SDS011;1368;49.484;11.112;2023-04-24T04:50:34;6.23;;;3.37;;
2720;SDS011;1368;49.484;11.112;2023-04-24T04:53:00;5.97;;;3.63;;
2720;SDS011;1368;49.484;11.112;2023-04-24T04:55:26;5.60;;;3.57;;
2720;SDS011;1368;49.484;11.112;2023-04-24T04:57:51;4.90;;;3.57;;
2720;SDS011;1368;49.484;11.112;2023-04-24T05:00:17;5.00;;;3.60;;
2720;SDS011;1368;49.484;11.112;2023-04-24T05:02:43;4.17;;;3.50;;
2720;SDS011;1368;49.484;11.112;2023-04-24T05:05:09;6.00;;;3.47;;
2720;SDS011;1368;49.484;11.112;2023-04-24T05:07:35;8.60;;;3.50;;
2720;SDS011;1368;49.484;11.112;2023-04-24T05:10:00;8.43;;;3.77;;
2720;SDS011;1368;49.484;11.112;2023-04-24T05:12:26;8.13;;;4.40;;
2720;SDS011;1368;49.484;11.112;2023-04-24T05:14:52;5.30;;;3.77;;
2720;SDS011;1368;49.484;11.112;2023-04-24T05:17:17;11.13;;;4.60;;
2720;SDS011;1368;49.484;11.112;2023-04-24T05:19:43;6.10;;;4.10;;
2720;SDS011;1368;49.484;11.112;2023-04-24T05:22:09;6.73;;;3.90;;
2720;SDS011;1368;49.484;11.112;2023-04-24T05:24:36;5.63;;;4.50;;
2720;SDS011;1368;49.484;11.112;2023-04-24T05:27:02;5.80;;;4.33;;
2720;SDS011;1368;49.484;11.112;2023-04-24T05:29:29;7.57;;;4.40;;
2720;SDS011;1368;49.484;11.112;2023-04-24T05:31:58;4.63;;;3.93;;
2720;SDS011;1368;49.484;11.112;2023-04-24T05:34:25;6.27;;;4.10;;
2720;SDS011;1368;49.484;11.112;2023-04-24T05:36:51;6.03;;;4.47;;
2720;SDS011;1368;49.484;11.112;2023-04-24T05:39:16;5.43;;;4.10;;
2720;SDS011;1368;49.484;11.112;2023-04-24T05:41:42;7.20;;;4.00;;
2720;SDS011;1368;49.484;11.112;2023-04-24T05:44:08;5.50;;;3.83;;
2720;SDS011;1368;49.484;11.112;2023-04-24T05:46:34;7.13;;;4.17;;
2720;SDS011;1368;49.484;11.112;2023-04-24T05:48:59;6.17;;;3.50;;
2720;SDS011;1368;49.484;11.112;2023-04-24T05:51:25;7.50;;;3.77;;
2720;SDS011;1368;49.484;11.112;2023-04-24T05:53:51;4.17;;;3.30;;
2720;SDS011;1368;49.484;11.112;2023-04-24T05:56:16;11.27;;;3.73;;
2720;SDS011;1368;49.484;11.112;2023-04-24T05:58:42;5.60;;;3.70;;
2720;SDS011;1368;49.484;11.112;2023-04-24T06:01:08;5.10;;;3.77;;
2720;SDS011;1368;49.484;11.112;2023-04-24T06:03:34;9.23;;;4.80;;
2720;SDS011;1368;49.484;11.112;2023-04-24T06:06:00;5.30;;;4.30;;
2720;SDS011;1368;49.484;11.112;2023-04-24T06:08:25;7.43;;;3.50;;
2720;SDS011;1368;49.484;11.112;2023-04-24T06:10:51;5.87;;;3.60;;
2720;SDS011;1368;49.484;11.112;2023-04-24T06:13:16;6.60;;;4.67;;
2720;SDS011;1368;49.484;11.112;2023-04-24T06:15:43;5.43;;;3.50;;
2720;SDS011;1368;49.484;11.112;2023-04-24T06:18:08;6.70;;;4.00;;
2720;SDS011;1368;49.484;11.112;2023-04-24T06:20:35;10.57;;;5.03;;
2720;SDS011;1368;49.484;11.112;2023-04-24T06:23:01;6.00;;;4.07;;
2720;SDS011;1368;49.484;11.112;2023-04-24T06:25:28;7.13;;;4.40;;
2720;SDS011;1368;49.484;11.112;2023-04-24T06:27:54;5.97;;;3.43;;
2720;SDS011;1368;49.484;11.112;2023-04-24T06:30:20;7.10;;;4.00;;
2720;SDS011;1368;49.484;11.112;2023-04-24T06:32:46;6.93;;;4.00;;
2720;SDS011;1368;49.484;11.112;2023-04-24T06:35:11;6.23;;;3.90;;
2720;SDS011;1368;49.484;11.112;2023-04-24T06:37:38;5.60;;;3.73;;
2720;SDS011;1368;49.484;11.112;2023-04-24T06:40:05;6.53;;;3.97;;
2720;SDS011;1368;49.484;11.112;2023-04-24T06:42:31;5.03;;;3.33;;
2720;SDS011;1368;49.484;11.112;2023-04-24T06:44:56;10.27;;;3.37;;
2720;SDS011;1368;49.484;11.112;2023-04-24T06:47:22;3.57;;;2.17;;
2720;SDS011;1368;49.484;11.112;2023-04-24T06:49:47;5.10;;;1.90;;
2720;SDS011;1368;49.484;11.112;2023-04-24T06:52:15;5.80;;;2.13;;
2720;SDS011;1368;49.484;11.112;2023-04-24T06:54:41;4.37;;;2.17;;
2720;SDS011;1368;49.484;11.112;2023-04-24T06:57:07;2.97;;;1.80;;
2720;SDS011;1368;49.484;11.112;2023-04-24T06:59:33;2.73;;;1.60;;
2720;SDS011;1368;49.484;11.112;2023-04-24T07:01:59;3.17;;;1.70;;
2720;SDS011;1368;49.484;11.112;2023-04-24T07:04:25;2.60;;;1.63;;
2720;SDS011;1368;49.484;11.112;2023-04-24T07:06:51;3.50;;;1.67;;
2720;SDS011;1368;49.484;11.112;2023-04-24T07:09:19;6.00;;;2.27;;
2720;SDS011;1368;49.484;11.112;2023-04-24T07:11:45;3.40;;;1.80;;
2720;SDS011;1368;49.484;11.112;2023-04-24T07:14:11;3.90;;;2.30;;
2720;SDS011;1368;49.484;11.112;2023-04-24T07:16:37;2.90;;;1.40;;
2720;SDS011;1368;49.484;11.112;2023-04-24T07:19:03;3.67;;;2.07;;
2720;SDS011;1368;49.484;11.112;2023-04-24T07:21:28;3.47;;;1.97;;
2720;SDS011;1368;49.484;11.112;2023-04-24T07:23:56;5.03;;;2.03;;
2720;SDS011;1368;49.484;11.112;2023-04-24T07:26:21;4.53;;;1.80;;
2720;SDS011;1368;49.484;11.112;2023-04-24T07:28:47;2.63;;;1.93;;
2720;SDS011;1368;49.484;11.112;2023-04-24T07:31:12;4.70;;;2.40;;
2720;SDS011;1368;49.484;11.112;2023-04-24T07:33:38;5.90;;;2.40;;
2720;SDS011;1368;49.484;11.112;2023-04-24T07:36:03;2.90;;;1.73;;
2720;SDS011;1368;49.484;11.112;2023-04-24T07:38:30;3.57;;;1.97;;
2720;SDS011;1368;49.484;11.112;2023-04-24T07:40:56;2.67;;;1.60;;
2720;SDS011;1368;49.484;11.112;2023-04-24T07:43:21;3.13;;;2.60;;
2720;SDS011;1368;49.484;11.112;2023-04-24T07:45:48;5.43;;;2.03;;
2720;SDS011;1368;49.484;11.112;2023-04-24T07:48:17;3.40;;;1.70;;
2720;SDS011;1368;49.484;11.112;2023-04-24T07:50:43;5.13;;;2.47;;
2720;SDS011;1368;49.484;11.112;2023-04-24T07:53:09;4.30;;;2.00;;
2720;SDS011;1368;49.484;11.112;2023-04-24T07:55:35;5.27;;;2.10;;
2720;SDS011;1368;49.484;11.112;2023-04-24T07:58:00;4.10;;;2.43;;
2720;SDS011;1368;49.484;11.112;2023-04-24T08:00:26;3.70;;;2.07;;
2720;SDS011;1368;49.484;11.112;2023-04-24T08:02:51;4.70;;;2.20;;
2720;SDS011;1368;49.484;11.112;2023-04-24T08:05:17;5.13;;;2.50;;
2720;SDS011;1368;49.484;11.112;2023-04-24T08:07:43;4.57;;;2.10;;
2720;SDS011;1368;49.484;11.112;2023-04-24T08:10:11;6.17;;;2.47;;
2720;SDS011;1368;49.484;11.112;2023-04-24T08:12:36;3.57;;;2.37;;
2720;SDS011;1368;49.484;11.112;2023-04-24T08:15:02;3.83;;;2.33;;
2720;SDS011;1368;49.484;11.112;2023-04-24T08:17:28;4.33;;;2.70;;
2720;SDS011;1368;49.484;11.112;2023-04-24T08:19:54;3.50;;;2.37;;
2720;SDS011;1368;49.484;11.112;2023-04-24T08:22:26;3.93;;;2.20;;
2720;SDS011;1368;49.484;11.112;2023-04-24T08:24:52;3.87;;;2.50;;
2720;SDS011;1368;49.484;11.112;2023-04-24T08:27:18;3.43;;;2.30;;
2720;SDS011;1368;49.484;11.112;2023-04-24T08:29:43;3.37;;;2.37;;
2720;SDS011;1368;49.484;11.112;2023-04-24T08:32:09;3.00;;;2.30;;
2720;SDS011;1368;49.484;11.112;2023-04-24T08:34:34;3.00;;;2.20;;
2720;SDS011;1368;49.484;11.112;2023-04-24T08:37:00;5.33;;;3.03;;
2720;SDS011;1368;49.484;11.112;2023-04-24T08:39:25;5.93;;;3.17;;
2720;SDS011;1368;49.484;11.112;2023-04-24T08:41:51;3.70;;;2.83;;
2720;SDS011;1368;49.484;11.112;2023-04-24T08:44:17;4.00;;;2.77;;
2720;SDS011;1368;49.484;11.112;2023-04-24T08:46:44;4.60;;;2.60;;
2720;SDS011;1368;49.484;11.112;2023-04-24T08:49:13;5.73;;;3.53;;
2720;SDS011;1368;49.484;11.112;2023-04-24T08:51:41;3.67;;;2.80;;
2720;SDS011;1368;49.484;11.112;2023-04-24T08:54:07;4.80;;;2.90;;
2720;SDS011;1368;49.484;11.112;2023-04-24T08:56:33;4.40;;;3.00;;
2720;SDS011;1368;49.484;11.112;2023-04-24T08:59:02;3.50;;;2.63;;
2720;SDS011;1368;49.484;11.112;2023-04-24T09:01:29;4.83;;;2.83;;
2720;SDS011;1368;49.484;11.112;2023-04-24T09:03:58;4.60;;;3.07;;
2720;SDS011;1368;49.484;11.112;2023-04-24T09:06:29;4.83;;;2.80;;
2720;SDS011;1368;49.484;11.112;2023-04-24T09:08:57;4.33;;;3.27;;
2720;SDS011;1368;49.484;11.112;2023-04-24T09:11:25;3.20;;;2.30;;
2720;SDS011;1368;49.484;11.112;2023-04-24T09:13:53;6.93;;;3.57;;
2720;SDS011;1368;49.484;11.112;2023-04-24T09:16:20;4.10;;;3.00;;
2720;SDS011;1368;49.484;11.112;2023-04-24T09:18:48;5.90;;;3.03;;
2720;SDS011;1368;49.484;11.112;2023-04-24T09:21:13;4.67;;;3.40;;
2720;SDS011;1368;49.484;11.112;2023-04-24T09:23:39;5.93;;;3.30;;
2720;SDS011;1368;49.484;11.112;2023-04-24T09:26:05;3.63;;;2.93;;
2720;SDS011;1368;49.484;11.112;2023-04-24T09:28:38;3.30;;;2.70;;
2720;SDS011;1368;49.484;11.112;2023-04-24T09:31:05;3.60;;;2.80;;
2720;SDS011;1368;49.484;11.112;2023-04-24T09:33:38;3.80;;;3.00;;
2720;SDS011;1368;49.484;11.112;2023-04-24T09:36:04;4.37;;;3.10;;
2720;SDS011;1368;49.484;11.112;2023-04-24T09:38:35;5.60;;;3.37;;
2720;SDS011;1368;49.484;11.112;2023-04-24T09:41:03;5.70;;;4.10;;
2720;SDS011;1368;49.484;11.112;2023-04-24T09:43:30;4.07;;;2.80;;
2720;SDS011;1368;49.484;11.112;2023-04-24T09:45:57;5.17;;;2.80;;
2720;SDS011;1368;49.484;11.112;2023-04-24T09:48:33;4.10;;;3.03;;
2720;SDS011;1368;49.484;11.112;2023-04-24T09:51:00;5.00;;;3.10;;
2720;SDS011;1368;49.484;11.112;2023-04-24T09:53:28;3.30;;;2.77;;
2720;SDS011;1368;49.484;11.112;2023-04-24T09:55:54;5.43;;;2.77;;
2720;SDS011;1368;49.484;11.112;2023-04-24T09:58:26;4.10;;;3.17;;
2720;SDS011;1368;49.484;11.112;2023-04-24T10:00:55;4.57;;;2.40;;
2720;SDS011;1368;49.484;11.112;2023-04-24T10:03:23;3.60;;;2.03;;
2720;SDS011;1368;49.484;11.112;2023-04-24T10:05:51;3.43;;;2.60;;
2720;SDS011;1368;49.484;11.112;2023-04-24T10:08:17;3.60;;;1.90;;
2720;SDS011;1368;49.484;11.112;2023-04-24T10:10:45;5.90;;;1.90;;
2720;SDS011;1368;49.484;11.112;2023-04-24T10:13:12;7.47;;;2.10;;
2720;SDS011;1368;49.484;11.112;2023-04-24T10:15:40;3.40;;;1.93;;
2720;SDS011;1368;49.484;11.112;2023-04-24T10:18:07;3.20;;;1.70;;
2720;SDS011;1368;49.484;11.112;2023-04-24T10:20:33;5.50;;;1.77;;
2720;SDS011;1368;49.484;11.112;2023-04-24T10:23:01;4.00;;;1.77;;
2720;SDS011;1368;49.484;11.112;2023-04-24T10:25:28;2.73;;;1.40;;
2720;SDS011;1368;49.484;11.112;2023-04-24T10:27:55;2.87;;;1.93;;
2720;SDS011;1368;49.484;11.112;2023-04-24T10:30:23;2.57;;;1.73;;
2720;SDS011;1368;49.484;11.112;2023-04-24T10:32:49;3.07;;;1.80;;
2720;SDS011;1368;49.484;11.112;2023-04-24T10:35:15;2.20;;;1.50;;
2720;SDS011;1368;49.484;11.112;2023-04-24T10:37:45;4.67;;;1.93;;
2720;SDS011;1368;49.484;11.112;2023-04-24T10:40:25;3.40;;;1.90;;
2720;SDS011;1368;49.484;11.112;2023-04-24T10:42:54;2.27;;;1.30;;
2720;SDS011;1368;49.484;11.112;2023-04-24T10:45:22;2.90;;;1.60;;
2720;SDS011;1368;49.484;11.112;2023-04-24T10:48:07;4.30;;;1.30;;
2720;SDS011;1368;49.484;11.112;2023-04-24T10:50:48;3.03;;;1.13;;
2720;SDS011;1368;49.484;11.112;2023-04-24T10:53:17;3.00;;;1.70;;
2720;SDS011;1368;49.484;11.112;2023-04-24T10:55:45;5.83;;;1.57;;
2720;SDS011;1368;49.484;11.112;2023-04-24T10:58:15;3.20;;;1.80;;
2720;SDS011;1368;49.484;11.112;2023-04-24T11:00:42;4.37;;;1.90;;
2720;SDS011;1368;49.484;11.112;2023-04-24T11:03:50;3.60;;;1.97;;
2720;SDS011;1368;49.484;11.112;2023-04-24T11:06:07;2.33;;;1.50;;
2720;SDS011;1368;49.484;11.112;2023-04-24T11:08:43;2.77;;;1.63;;
2720;SDS011;1368;49.484;11.112;2023-04-24T11:11:17;3.27;;;1.63;;
2720;SDS011;1368;49.484;11.112;2023-04-24T11:16:30;4.57;;;1.47;;
2720;SDS011;1368;49.484;11.112;2023-04-24T11:21:32;3.17;;;1.47;;
2720;SDS011;1368;49.484;11.112;2023-04-24T11:29:45;2.53;;;1.70;;
2720;SDS011;1368;49.484;11.112;2023-04-24T11:32:29;3.23;;;2.13;;
2720;SDS011;1368;49.484;11.112;2023-04-24T11:35:06;3.10;;;1.90;;
2720;SDS011;1368;49.484;11.112;2023-04-24T11:37:35;3.47;;;2.33;;
2720;SDS011;1368;49.484;11.112;2023-04-24T11:40:02;6.73;;;2.07;;
2720;SDS011;1368;49.484;11.112;2023-04-24T11:42:40;3.00;;;1.93;;
2720;SDS011;1368;49.484;11.112;2023-04-24T11:45:13;2.73;;;2.10;;
2720;SDS011;1368;49.484;11.112;2023-04-24T11:47:44;3.63;;;2.07;;
2720;SDS011;1368;49.484;11.112;2023-04-24T11:50:17;5.57;;;2.50;;
2720;SDS011;1368;49.484;11.112;2023-04-24T11:52:45;3.97;;;2.30;;
2720;SDS011;1368;49.484;11.112;2023-04-24T11:57:47;5.13;;;2.63;;
2720;SDS011;1368;49.484;11.112;2023-04-24T12:00:18;3.90;;;2.40;;
2720;SDS011;1368;49.484;11.112;2023-04-24T12:02:45;4.87;;;3.03;;
2720;SDS011;1368;49.484;11.112;2023-04-24T12:05:20;3.20;;;2.20;;
2720;SDS011;1368;49.484;11.112;2023-04-24T12:07:46;3.27;;;2.47;;
2720;SDS011;1368;49.484;11.112;2023-04-24T12:10:12;2.90;;;2.00;;
2720;SDS011;1368;49.484;11.112;2023-04-24T12:12:37;2.70;;;2.13;;
2720;SDS011;1368;49.484;11.112;2023-04-24T12:15:07;4.10;;;2.43;;
2720;SDS011;1368;49.484;11.112;2023-04-24T12:17:33;3.80;;;2.63;;
2720;SDS011;1368;49.484;11.112;2023-04-24T12:20:01;4.43;;;2.30;;
2720;SDS011;1368;49.484;11.112;2023-04-24T12:22:42;3.57;;;2.17;;
2720;SDS011;1368;49.484;11.112;2023-04-24T12:25:09;3.40;;;2.50;;
2720;SDS011;1368;49.484;11.112;2023-04-24T12:27:35;2.93;;;2.50;;
2720;SDS011;1368;49.484;11.112;2023-04-24T12:30:02;7.30;;;2.60;;
2720;SDS011;1368;49.484;11.112;2023-04-24T12:32:30;4.40;;;2.43;;
2720;SDS011;1368;49.484;11.112;2023-04-24T12:34:56;4.00;;;2.47;;
2720;SDS011;1368;49.484;11.112;2023-04-24T12:37:25;3.77;;;2.43;;
2720;SDS011;1368;49.484;11.112;2023-04-24T12:40:01;3.43;;;2.17;;
2720;SDS011;1368;49.484;11.112;2023-04-24T12:42:34;3.67;;;2.70;;
2720;SDS011;1368;49.484;11.112;2023-04-24T12:45:07;3.27;;;2.10;;
2720;SDS011;1368;49.484;11.112;2023-04-24T12:47:33;6.00;;;2.70;;
2720;SDS011;1368;49.484;11.112;2023-04-24T12:49:59;3.87;;;2.67;;
2720;SDS011;1368;49.484;11.112;2023-04-24T12:52:26;2.90;;;2.00;;
2720;SDS011;1368;49.484;11.112;2023-04-24T12:54:53;3.93;;;2.67;;
2720;SDS011;1368;49.484;11.112;2023-04-24T12:57:20;2.50;;;1.77;;
2720;SDS011;1368;49.484;11.112;2023-04-24T12:59:46;2.83;;;1.77;;
2720;SDS011;1368;49.484;11.112;2023-04-24T13:02:12;3.03;;;1.83;;
2720;SDS011;1368;49.484;11.112;2023-04-24T13:04:37;2.97;;;2.10;;
2720;SDS011;1368;49.484;11.112;2023-04-24T13:07:03;3.13;;;2.17;;
2720;SDS011;1368;49.484;11.112;2023-04-24T13:09:30;3.93;;;1.93;;
2720;SDS011;1368;49.484;11.112;2023-04-24T13:11:55;3.43;;;2.20;;
2720;SDS011;1368;49.484;11.112;2023-04-24T13:14:21;3.73;;;2.17;;
2720;SDS011;1368;49.484;11.112;2023-04-24T13:16:47;3.27;;;2.00;;
2720;SDS011;1368;49.484;11.112;2023-04-24T13:19:13;4.37;;;1.93;;
2720;SDS011;1368;49.484;11.112;2023-04-24T13:21:38;4.87;;;2.33;;
2720;SDS011;1368;49.484;11.112;2023-04-24T13:24:04;3.37;;;2.40;;
2720;SDS011;1368;49.484;11.112;2023-04-24T13:26:30;5.20;;;2.40;;
2720;SDS011;1368;49.484;11.112;2023-04-24T13:28:56;4.00;;;2.87;;
2720;SDS011;1368;49.484;11.112;2023-04-24T13:31:21;3.23;;;2.40;;
2720;SDS011;1368;49.484;11.112;2023-04-24T13:33:47;4.53;;;2.90;;
2720;SDS011;1368;49.484;11.112;2023-04-24T13:36:13;3.40;;;2.40;;
2720;SDS011;1368;49.484;11.112;2023-04-24T13:38:38;4.50;;;2.40;;
2720;SDS011;1368;49.484;11.112;2023-04-24T13:41:04;4.50;;;2.63;;
2720;SDS011;1368;49.484;11.112;2023-04-24T13:43:30;2.90;;;2.60;;
2720;SDS011;1368;49.484;11.112;2023-04-24T13:45:55;3.20;;;2.20;;
2720;SDS011;1368;49.484;11.112;2023-04-24T13:48:21;4.03;;;2.80;;
2720;SDS011;1368;49.484;11.112;2023-04-24T13:50:46;5.33;;;3.00;;
2720;SDS011;1368;49.484;11.112;2023-04-24T13:53:14;4.30;;;1.63;;
2720;SDS011;1368;49.484;11.112;2023-04-24T13:55:40;3.47;;;2.10;;
2720;SDS011;1368;49.484;11.112;2023-04-24T13:58:05;4.03;;;1.93;;
2720;SDS011;1368;49.484;11.112;2023-04-24T14:00:31;3.07;;;2.20;;
2720;SDS011;1368;49.484;11.112;2023-04-24T14:02:57;6.27;;;2.70;;
2720;SDS011;1368;49.484;11.112;2023-04-24T14:05:22;6.10;;;2.40;;
2720;SDS011;1368;49.484;11.112;2023-04-24T14:07:48;4.20;;;2.23;;
2720;SDS011;1368;49.484;11.112;2023-04-24T14:10:13;9.57;;;3.03;;
2720;SDS011;1368;49.484;11.112;2023-04-24T14:12:39;3.47;;;2.83;;
2720;SDS011;1368;49.484;11.112;2023-04-24T14:15:05;5.20;;;3.30;;
2720;SDS011;1368;49.484;11.112;2023-04-24T14:17:31;3.80;;;3.20;;
2720;SDS011;1368;49.484;11.112;2023-04-24T14:19:56;4.80;;;3.10;;
2720;SDS011;1368;49.484;11.112;2023-04-24T14:22:24;4.77;;;2.93;;
2720;SDS011;1368;49.484;11.112;2023-04-24T14:24:50;3.47;;;2.80;;
2720;SDS011;1368;49.484;11.112;2023-04-24T14:27:16;5.70;;;3.70;;
2720;SDS011;1368;49.484;11.112;2023-04-24T14:29:41;4.50;;;3.37;;
2720;SDS011;1368;49.484;11.112;2023-04-24T14:32:07;4.40;;;2.90;;
2720;SDS011;1368;49.484;11.112;2023-04-24T14:34:34;4.73;;;3.20;;
2720;SDS011;1368;49.484;11.112;2023-04-24T14:36:59;3.73;;;2.90;;
2720;SDS011;1368;49.484;11.112;2023-04-24T14:39:25;5.10;;;3.20;;
2720;SDS011;1368;49.484;11.112;2023-04-24T14:41:50;5.50;;;3.50;;
2720;SDS011;1368;49.484;11.112;2023-04-24T14:44:16;5.33;;;3.93;;
2720;SDS011;1368;49.484;11.112;2023-04-24T14:46:42;6.13;;;3.10;;
2720;SDS011;1368;49.484;11.112;2023-04-24T14:49:08;8.23;;;2.63;;
2720;SDS011;1368;49.484;11.112;2023-04-24T14:51:34;3.00;;;2.00;;
2720;SDS011;1368;49.484;11.112;2023-04-24T14:54:03;3.20;;;2.13;;
2720;SDS011;1368;49.484;11.112;2023-04-24T14:56:29;4.60;;;2.00;;
2720;SDS011;1368;49.484;11.112;2023-04-24T14:58:54;5.80;;;2.70;;
2720;SDS011;1368;49.484;11.112;2023-04-24T15:01:20;3.67;;;2.93;;
2720;SDS011;1368;49.484;11.112;2023-04-24T15:03:46;5.23;;;3.07;;
2720;SDS011;1368;49.484;11.112;2023-04-24T15:06:11;6.20;;;3.27;;
2720;SDS011;1368;49.484;11.112;2023-04-24T15:08:37;6.23;;;2.67;;
2720;SDS011;1368;49.484;11.112;2023-04-24T15:11:03;6.70;;;3.70;;